Time;durP1;ratioP1;P1;durP2;ratioP2;P2;SDS_P1;SDS_P2;PMS_P1;PMS_P2;Temp;Humidity;BMP_temperature;BMP_pressure;BME280_temperature;BME280_humidity;BME280_pressure;Samples;Min_cycle;Max_cycle;Signal;HPM_P1;HPM_P2
2022/01/12 00:01:05;;;;;;;16.42;11.05;;;;;;;1.75;84.02;100749.38;4851206;29;20567;-84
2022/01/12 00:03:32;;;;;;;14.38;11.40;;;;;;;1.60;83.69;100727.16;4858057;29;20065;-85
2022/01/12 00:05:58;;;;;;;14.30;10.82;;;;;;;1.34;83.64;100690.16;4842208;29;20033;-85
2022/01/12 00:08:25;;;;;;;15.40;11.00;;;;;;;1.58;83.65;100721.19;4859016;29;20380;-85
2022/01/12 00:10:50;;;;;;;12.73;10.32;;;;;;;1.62;83.66;100724.38;4826914;29;20026;-85
2022/01/12 00:13:16;;;;;;;15.30;10.63;;;;;;;1.48;84.16;100700.22;4840414;29;20038;-84
2022/01/12 00:15:41;;;;;;;15.77;11.05;;;;;;;1.63;83.56;100716.34;4840816;29;20510;-84
2022/01/12 00:18:06;;;;;;;15.63;10.90;;;;;;;1.65;83.50;100714.38;4858014;29;20451;-85
2022/01/12 00:20:32;;;;;;;14.00;10.07;;;;;;;1.66;83.58;100721.28;4838566;29;20663;-85
2022/01/12 00:22:57;;;;;;;13.13;10.93;;;;;;;1.64;83.54;100717.19;4820614;29;20041;-85
2022/01/12 00:25:33;;;;;;;12.77;10.40;;;;;;;1.56;83.66;100707.38;4835957;29;20085;-84
2022/01/12 00:33:27;;;;;;;13.35;10.60;;;;;;;1.45;83.93;100703.13;4855984;29;20068;-84
2022/01/12 00:35:55;;;;;;;15.85;12.05;;;;;;;1.54;83.59;100725.09;4843961;29;20037;-84
2022/01/12 00:38:22;;;;;;;14.10;10.80;;;;;;;1.56;83.71;100723.16;4861128;29;20124;-84
2022/01/12 00:40:50;;;;;;;15.93;10.73;;;;;;;1.56;83.46;100727.56;4851427;29;20048;-85
2022/01/12 00:43:18;;;;;;;15.32;11.18;;;;;;;1.47;83.81;100705.59;4873986;29;20040;-84
2022/01/12 00:45:45;;;;;;;15.77;11.63;;;;;;;1.48;83.79;100712.53;4843824;29;20030;-84
2022/01/12 00:48:12;;;;;;;14.98;11.20;;;;;;;1.49;83.80;100708.91;4825523;29;20044;-86
2022/01/12 00:50:39;;;;;;;15.70;11.52;;;;;;;1.50;83.54;100703.53;4824623;29;20497;-84
2022/01/12 00:53:04;;;;;;;13.95;10.80;;;;;;;1.56;83.88;100715.25;4839969;29;20116;-88
2022/01/12 00:55:35;;;;;;;16.05;11.50;;;;;;;1.57;83.61;100710.81;4840030;29;20030;-87
2022/01/12 00:58:00;;;;;;;18.45;11.07;;;;;;;1.57;83.84;100723.97;4840364;29;20036;-85
2022/01/12 01:00:27;;;;;;;13.88;9.73;;;;;;;1.49;83.43;100719.44;4861598;29;20029;-83
2022/01/12 01:02:56;;;;;;;16.42;11.63;;;;;;;1.59;83.42;100730.75;4856310;29;20029;-84
2022/01/12 01:05:23;;;;;;;17.45;10.95;;;;;;;1.57;83.38;100731.88;4845140;29;20122;-85
2022/01/12 01:07:51;;;;;;;13.05;9.85;;;;;;;1.57;83.81;100726.63;4846275;29;20106;-85
2022/01/12 01:10:28;;;;;;;13.98;9.90;;;;;;;1.60;83.84;100737.66;4840359;29;20052;-84
2022/01/12 01:12:54;;;;;;;12.68;10.40;;;;;;;1.41;83.28;100707.00;4859061;29;20510;-84
2022/01/12 01:15:28;;;;;;;14.38;10.00;;;;;;;1.57;83.73;100730.09;4843574;29;20030;-84
2022/01/12 01:26:05;;;;;;;16.80;10.02;;;;;;;1.59;83.48;100722.03;4873743;29;20542;-85
2022/01/12 01:28:30;;;;;;;13.82;10.45;;;;;;;1.59;83.38;100722.03;4826152;29;20133;-84
2022/01/12 01:30:56;;;;;;;13.30;10.20;;;;;;;1.58;83.81;100717.72;4837208;29;20042;-85
2022/01/12 01:33:22;;;;;;;14.70;10.63;;;;;;;1.38;83.71;100686.25;4829570;29;20049;-84
2022/01/12 01:35:54;;;;;;;14.20;10.35;;;;;;;1.60;83.48;100726.31;4837799;29;20045;-85
2022/01/12 01:38:19;;;;;;;13.38;10.15;;;;;;;1.58;83.67;100717.72;4852073;29;20029;-83
2022/01/12 01:40:45;;;;;;;13.50;10.50;;;;;;;1.58;83.74;100723.84;4871213;29;20090;-84
2022/01/12 01:53:55;;;;;;;16.85;11.45;;;;;;;1.50;82.81;100711.41;4853322;29;20201;-84
2022/01/12 01:56:21;;;;;;;14.52;10.00;;;;;;;1.44;82.64;100716.44;4853489;29;20434;-84
2022/01/12 01:58:47;;;;;;;13.77;9.98;;;;;;;1.43;82.82;100717.38;4862192;29;20456;-83
2022/01/12 02:01:13;;;;;;;13.50;9.98;;;;;;;1.43;82.81;100722.66;4859029;29;20093;-84
2022/01/12 02:03:40;;;;;;;13.40;10.52;;;;;;;1.45;82.94;100715.44;4854160;29;20022;-84
2022/01/12 02:06:07;;;;;;;12.88;9.90;;;;;;;1.25;82.96;100685.75;4845860;29;20033;-83
2022/01/12 02:08:35;;;;;;;12.77;9.73;;;;;;;1.41;83.18;100707.00;4858089;29;20058;-84
2022/01/12 02:11:01;;;;;;;15.43;10.60;;;;;;;1.38;82.81;100712.56;4854013;29;20040;-84
2022/01/12 02:13:26;;;;;;;15.05;11.05;;;;;;;1.27;82.77;100696.94;4839400;29;20037;-84
2022/01/12 02:15:54;;;;;;;13.45;9.95;;;;;;;1.40;82.67;100721.13;4843954;29;20037;-83
2022/01/12 02:18:36;;;;;;;15.45;10.70;;;;;;;1.39;83.15;100730.00;4840631;29;20081;-83
2022/01/12 02:40:40;;;;;;;11.23;9.48;;;;;;;1.35;83.67;100715.50;4852609;29;20037;-83
2022/01/12 02:53:42;;;;;;;14.18;9.25;;;;;;;1.28;83.84;100705.66;4859994;29;20041;-84
2022/01/12 02:56:18;;;;;;;15.50;9.63;;;;;;;1.46;84.07;100732.91;4854900;29;20516;-83
2022/01/12 02:58:44;;;;;;;;;;;;;;;1.42;83.70;100740.22;4842540;29;20030;-83
2022/01/12 03:02:08;;;;;;;10.98;7.78;;;;;;;1.43;83.93;100752.41;4851092;29;19916;-82
2022/01/12 03:04:00;;;;;;;13.55;8.82;;;;;;;1.42;83.88;100752.56;4839926;29;20042;-83
2022/01/12 03:06:32;;;;;;;12.85;8.13;;;;;;;1.43;83.77;100747.16;4841134;29;20048;-83
2022/01/12 03:08:59;;;;;;;11.00;8.25;;;;;;;1.45;83.77;100758.38;4829480;29;20030;-83
2022/01/12 03:11:26;;;;;;;11.77;8.38;;;;;;;1.47;84.09;100753.78;4872311;29;20395;-83
2022/01/12 03:13:55;;;;;;;14.32;7.90;;;;;;;1.49;84.35;100762.38;4855874;29;20469;-84
2022/01/12 03:16:24;;;;;;;11.32;8.05;;;;;;;1.46;84.15;100760.00;4856320;29;20029;-83
2022/01/12 03:18:52;;;;;;;14.25;8.38;;;;;;;1.50;83.82;100768.47;4843007;29;20470;-84
2022/01/12 03:21:20;;;;;;;12.20;8.18;;;;;;;1.53;84.23;100763.72;4853729;29;20032;-84
2022/01/12 03:23:47;;;;;;;12.73;8.20;;;;;;;1.52;84.23;100762.09;4851637;29;20126;-84
2022/01/12 03:26:13;;;;;;;13.10;7.68;;;;;;;1.55;84.25;100765.41;4860033;29;20029;-84
2022/01/12 03:28:40;;;;;;;12.02;8.30;;;;;;;1.55;84.09;100770.66;4876809;29;20052;-83
2022/01/12 03:31:10;;;;;;;11.15;8.35;;;;;;;1.55;83.78;100763.59;4858410;29;20106;-85
2022/01/12 03:36:23;;;;;;;11.80;8.55;;;;;;;1.56;83.75;100756.53;4849653;29;20410;-84
2022/01/12 03:38:47;;;;;;;15.13;8.95;;;;;;;1.56;83.84;100753.88;4849940;29;20069;-84
2022/01/12 03:41:12;;;;;;;12.05;7.80;;;;;;;1.56;84.24;100757.34;4853462;29;20080;-84
2022/01/12 03:43:38;;;;;;;12.38;8.55;;;;;;;1.49;84.12;100735.22;4873301;29;20067;-84
2022/01/12 03:46:04;;;;;;;12.50;8.52;;;;;;;1.58;84.48;100749.31;4851700;29;20033;-86
2022/01/12 03:48:30;;;;;;;14.32;8.75;;;;;;;1.36;84.15;100718.94;4855969;29;20391;-86
2022/01/12 03:50:56;;;;;;;11.73;8.90;;;;;;;1.58;84.33;100750.16;4833456;29;20090;-87
2022/01/12 03:53:22;;;;;;;11.23;8.35;;;;;;;1.52;83.88;100740.19;4839557;29;20103;-86
2022/01/12 03:55:48;;;;;;;11.30;8.35;;;;;;;1.60;84.03;100755.25;4828163;29;20061;-85
2022/01/12 03:58:14;;;;;;;14.57;8.52;;;;;;;1.59;84.37;100750.97;4872442;29;20033;-85
2022/01/12 04:00:39;;;;;;;13.45;9.10;;;;;;;1.60;84.24;100752.63;4851179;29;20032;-86
2022/01/12 04:03:06;;;;;;;14.60;9.20;;;;;;;1.60;84.07;100756.09;4827537;29;20039;-86
2022/01/12 04:08:20;;;;;;;13.57;9.00;;;;;;;1.60;84.31;100765.78;4855202;29;20025;-85
2022/01/12 04:10:51;;;;;;;11.20;7.95;;;;;;;1.60;84.37;100757.88;4840046;29;20132;-85
2022/01/12 04:13:17;;;;;;;14.50;8.80;;;;;;;1.60;84.35;100763.97;4854906;29;20042;-84
2022/01/12 04:15:48;;;;;;;14.38;8.75;;;;;;;1.61;84.01;100752.50;4873875;29;20108;-83
2022/01/12 04:18:13;;;;;;;16.33;9.65;;;;;;;1.61;84.03;100743.78;4839519;29;20042;-85
2022/01/12 04:20:46;;;;;;;12.75;8.38;;;;;;;1.41;83.99;100714.06;4835725;29;20037;-84
2022/01/12 04:23:19;;;;;;;16.13;9.52;;;;;;;1.56;84.40;100730.22;4838329;29;20038;-84
2022/01/12 04:25:47;;;;;;;11.90;8.65;;;;;;;1.59;84.19;100737.81;4829295;29;20178;-86
2022/01/12 04:28:13;;;;;;;10.35;8.32;;;;;;;1.46;84.31;100704.75;4860428;29;20034;-84
2022/01/12 04:30:39;;;;;;;14.32;9.07;;;;;;;1.51;83.92;100720.13;4839660;29;20030;-84
2022/01/12 04:33:05;;;;;;;14.27;9.45;;;;;;;1.60;84.00;100728.94;4833005;29;20067;-84
2022/01/12 04:35:34;;;;;;;13.88;8.85;;;;;;;1.58;84.12;100723.00;4854441;29;20026;-85
2022/01/12 04:38:00;;;;;;;15.30;9.05;;;;;;;1.57;84.16;100713.47;4857020;29;20045;-84
2022/01/12 04:40:25;;;;;;;14.50;9.00;;;;;;;1.58;83.90;100726.47;4841513;29;20034;-84
2022/01/12 04:42:53;;;;;;;15.50;9.15;;;;;;;1.59;83.90;100735.19;4851983;29;20479;-84
2022/01/12 04:45:37;;;;;;;14.32;9.27;;;;;;;1.60;84.01;100739.47;4838793;29;20052;-84
2022/01/12 04:48:32;;;;;;;11.55;8.52;;;;;;;1.59;84.35;100730.75;4850522;29;20395;-84
2022/01/12 04:50:56;;;;;;;15.18;9.32;;;;;;;1.44;84.00;100708.53;4852067;29;20067;-88
2022/01/12 04:53:22;;;;;;;12.65;8.55;;;;;;;1.58;83.99;100733.53;4844477;29;20030;-85
2022/01/12 04:55:49;;;;;;;16.25;9.13;;;;;;;1.32;84.21;100701.78;4859458;29;20453;-84
2022/01/12 04:58:16;;;;;;;16.10;9.52;;;;;;;1.59;84.41;100743.91;4853785;29;20090;-85
2022/01/12 05:00:43;;;;;;;11.98;8.70;;;;;;;1.51;84.52;100736.72;4839597;29;20049;-85
2022/01/12 05:09:30;;;;;;;13.20;9.70;;;;;;;1.52;83.96;100741.03;4867489;29;20044;-86
2022/01/12 05:14:06;;;;;;;13.32;8.57;;;;;;;1.52;84.11;100734.94;4857038;29;20142;-86
2022/01/12 05:16:32;;;;;;;13.90;9.00;;;;;;;1.60;84.58;100740.31;4841323;29;20120;-86
2022/01/12 05:18:59;;;;;;;18.13;10.55;;;;;;;1.59;84.12;100743.09;4827245;29;20041;-84
2022/01/12 05:21:25;;;;;;;13.68;9.57;;;;;;;1.60;84.27;100747.34;4830805;29;20042;-85
2022/01/12 05:23:51;;;;;;;13.48;9.27;;;;;;;1.60;84.13;100747.34;4860173;29;20035;-85
2022/01/12 05:26:17;;;;;;;16.55;10.52;;;;;;;1.59;83.90;100740.47;4846026;29;20038;-86
2022/01/12 05:28:42;;;;;;;15.65;9.20;;;;;;;1.60;84.26;100742.09;4837092;29;20034;-86
2022/01/12 05:31:10;;;;;;;14.73;9.27;;;;;;;1.58;84.20;100744.88;4859592;29;20057;-85
2022/01/12 05:33:36;;;;;;;15.38;10.45;;;;;;;1.33;84.41;100704.25;4834342;29;20654;-86
2022/01/12 05:36:04;;;;;;;14.88;10.15;;;;;;;1.59;84.62;100737.81;4834655;29;20033;-86
2022/01/12 05:38:30;;;;;;;16.42;10.85;;;;;;;1.60;84.39;100742.94;4853014;29;20029;-85
2022/01/12 05:41:00;;;;;;;16.00;9.75;;;;;;;1.59;84.26;100745.72;4877751;29;20034;-85
2022/01/12 05:43:29;;;;;;;16.65;9.85;;;;;;;1.59;84.20;100761.50;4848942;29;20061;-85
2022/01/12 05:45:57;;;;;;;16.63;10.27;;;;;;;1.59;84.04;100770.25;4857266;29;20041;-85
2022/01/12 05:51:07;;;;;;;17.48;9.70;;;;;;;1.59;84.08;100772.03;4848989;29;20048;-84
2022/01/12 05:53:32;;;;;;;16.08;9.88;;;;;;;1.57;84.28;100776.59;4861160;29;20021;-84
2022/01/12 05:55:57;;;;;;;16.05;10.15;;;;;;;1.58;84.19;100771.19;4828557;29;20029;-86
2022/01/12 05:58:23;;;;;;;16.02;10.48;;;;;;;1.57;84.49;100780.06;4845926;29;20434;-85
2022/01/12 06:00:48;;;;;;;15.98;10.20;;;;;;;1.49;84.07;100762.38;4831168;29;20116;-85
2022/01/12 06:03:14;;;;;;;15.88;9.80;;;;;;;1.58;84.18;100759.84;4824897;29;20065;-85
2022/01/12 06:05:39;;;;;;;16.10;10.90;;;;;;;1.39;84.23;100730.00;4844007;29;20033;-84
2022/01/12 06:08:04;;;;;;;15.80;10.00;;;;;;;1.60;84.68;100753.47;4831764;29;20049;-83
2022/01/12 06:10:30;;;;;;;18.05;11.40;;;;;;;1.59;84.18;100761.50;4837869;29;20034;-83
2022/01/12 06:12:55;;;;;;;14.30;10.50;;;;;;;1.60;84.57;100773.66;4830428;29;20072;-83
2022/01/12 06:15:20;;;;;;;15.90;11.05;;;;;;;1.50;84.71;100752.69;4842747;29;20037;-83
2022/01/12 06:17:47;;;;;;;14.00;9.68;;;;;;;1.61;84.78;100770.09;4843381;29;20049;-85
2022/01/12 06:20:13;;;;;;;17.50;10.95;;;;;;;1.53;84.51;100763.72;4861911;29;20466;-84
2022/01/12 06:22:38;;;;;;;20.08;10.93;;;;;;;1.63;84.40;100778.66;4831096;29;20164;-83
2022/01/12 06:25:07;;;;;;;15.68;10.60;;;;;;;1.63;84.81;100778.66;4829380;29;20034;-84
2022/01/12 06:27:34;;;;;;;17.95;10.80;;;;;;;1.64;84.61;100775.88;4856985;29;20029;-85
2022/01/12 06:32:29;;;;;;;18.42;10.93;;;;;;;1.66;84.48;100787.09;4862274;29;20105;-85
2022/01/12 06:34:54;;;;;;;14.90;10.05;;;;;;;1.67;84.91;100798.44;4843169;29;20029;-85
2022/01/12 06:37:20;;;;;;;16.20;10.40;;;;;;;1.67;84.77;100801.09;4813461;29;20034;-84
2022/01/12 06:39:45;;;;;;;17.55;10.57;;;;;;;1.67;84.98;100801.09;4830695;29;20041;-84
2022/01/12 06:42:10;;;;;;;16.10;10.93;;;;;;;1.67;84.75;100795.81;4831016;29;20030;-85
2022/01/12 06:44:36;;;;;;;16.80;11.27;;;;;;;1.69;85.00;100801.75;4823096;29;20041;-83
2022/01/12 06:47:03;;;;;;;15.23;10.82;;;;;;;1.68;84.58;100803.59;4831016;29;20463;-84
2022/01/12 06:49:29;;;;;;;20.73;10.77;;;;;;;1.43;85.03;100768.22;4846600;29;20564;-84
2022/01/12 06:51:54;;;;;;;15.40;10.20;;;;;;;1.60;84.61;100806.09;4846437;29;20029;-83
2022/01/12 06:54:20;;;;;;;19.35;11.52;;;;;;;1.56;85.00;100793.34;4831607;29;20430;-83
2022/01/12 06:56:45;;;;;;;17.88;10.48;;;;;;;1.72;84.71;100814.66;4833100;29;20048;-84
2022/01/12 06:59:11;;;;;;;16.20;11.07;;;;;;;1.73;85.08;100816.28;4854530;29;20487;-83
2022/01/12 07:01:37;;;;;;;20.75;10.60;;;;;;;1.73;84.73;100813.66;4852961;29;20030;-83
2022/01/12 07:04:03;;;;;;;22.00;11.50;;;;;;;1.74;84.83;100810.06;4862013;29;20452;-84
2022/01/12 07:06:28;;;;;;;17.08;11.20;;;;;;;1.74;85.07;100802.16;4831833;29;20070;-84
2022/01/12 07:08:53;;;;;;;18.70;11.48;;;;;;;1.69;85.01;100805.22;4841527;29;20061;-83
2022/01/12 07:11:19;;;;;;;17.65;11.23;;;;;;;1.75;84.76;100817.00;4846298;29;20033;-84
2022/01/12 07:13:44;;;;;;;15.95;11.40;;;;;;;1.75;85.31;100822.28;4858332;29;20060;-83
2022/01/12 07:16:11;;;;;;;18.40;12.32;;;;;;;1.60;85.35;100800.81;4842575;29;20105;-83
2022/01/12 07:18:37;;;;;;;19.67;12.27;;;;;;;1.76;85.49;100835.28;4828591;29;20042;-83
2022/01/12 07:21:02;;;;;;;16.92;11.73;;;;;;;1.53;85.03;100794.47;4837163;29;20377;-83
2022/01/12 07:23:28;;;;;;;16.05;11.10;;;;;;;1.78;85.25;100820.16;4847550;29;20038;-83
2022/01/12 07:25:54;;;;;;;16.58;10.63;;;;;;;1.78;85.36;100825.44;4845894;29;20566;-83
2022/01/12 07:28:20;;;;;;;17.77;11.82;;;;;;;1.79;85.21;100821.81;4843051;29;20105;-83
2022/01/12 07:30:46;;;;;;;20.55;11.88;;;;;;;1.80;84.82;100810.31;4835322;29;20075;-83
2022/01/12 07:33:12;;;;;;;22.48;12.77;;;;;;;1.81;85.38;100825.16;4842804;29;20049;-83
2022/01/12 07:35:39;;;;;;;16.35;11.80;;;;;;;1.65;85.42;100795.13;4856121;29;20037;-83
2022/01/12 07:38:04;;;;;;;18.38;12.23;;;;;;;1.82;85.44;100826.81;4859885;29;20053;-84
2022/01/12 07:40:30;;;;;;;18.25;12.23;;;;;;;1.84;84.91;100834.53;4842896;29;20134;-82
2022/01/12 07:42:56;;;;;;;15.35;12.02;;;;;;;1.74;85.35;100812.69;4859518;29;20025;-84
2022/01/12 07:45:22;;;;;;;19.60;12.57;;;;;;;1.85;84.85;100834.41;4844705;29;20048;-83
2022/01/12 07:47:47;;;;;;;19.63;11.82;;;;;;;1.84;85.43;100839.81;4860053;29;20090;-83
2022/01/12 07:50:14;;;;;;;16.55;11.15;;;;;;;1.71;85.26;100813.81;4856265;29;20040;-83
2022/01/12 07:52:39;;;;;;;15.23;10.45;;;;;;;1.85;85.60;100842.31;4839514;29;20436;-83
2022/01/12 07:55:06;;;;;;;17.90;12.02;;;;;;;1.87;85.36;100850.91;4844202;29;20038;-83
2022/01/12 07:57:31;;;;;;;16.67;11.25;;;;;;;1.87;85.47;100855.34;4870909;29;20066;-83
2022/01/12 07:59:57;;;;;;;16.08;11.45;;;;;;;1.88;85.40;100855.19;4873196;29;20037;-82
2022/01/12 08:02:22;;;;;;;20.23;12.15;;;;;;;1.88;85.69;100859.63;4857631;29;20435;-83
2022/01/12 08:04:48;;;;;;;18.73;12.23;;;;;;;1.81;85.45;100850.66;4863512;29;20068;-83
2022/01/12 08:07:14;;;;;;;19.70;12.63;;;;;;;1.89;85.67;100864.75;4854131;29;20032;-82
2022/01/12 08:09:41;;;;;;;19.90;12.70;;;;;;;1.92;85.72;100868.91;4840404;29;20124;-82
2022/01/12 08:12:08;;;;;;;18.50;12.07;;;;;;;1.94;85.93;100872.22;4821060;29;20044;-84
2022/01/12 08:14:33;;;;;;;23.00;12.85;;;;;;;1.60;85.56;100816.63;4836838;29;20061;-84
2022/01/12 08:16:59;;;;;;;17.75;12.63;;;;;;;1.93;85.66;100870.53;4855122;29;20073;-84
2022/01/12 08:19:25;;;;;;;18.33;12.48;;;;;;;1.93;85.90;100878.44;4841709;29;20452;-83
2022/01/12 08:21:51;;;;;;;19.35;12.48;;;;;;;1.74;85.79;100853.03;4837945;29;20041;-83
2022/01/12 08:24:17;;;;;;;19.23;12.82;;;;;;;1.93;86.01;100879.28;4838980;29;20030;-83
2022/01/12 08:26:43;;;;;;;16.98;13.05;;;;;;;1.93;86.01;100876.66;4854353;29;20475;-84
2022/01/12 08:29:11;;;;;;;20.60;12.70;;;;;;;1.95;86.24;100884.41;4853381;29;20101;-83
2022/01/12 08:31:36;;;;;;;18.90;12.88;;;;;;;1.95;85.79;100885.22;4842752;29;20037;-83
2022/01/12 08:34:03;;;;;;;19.02;13.00;;;;;;;1.96;86.27;100886.06;4854190;29;20057;-83
2022/01/12 08:36:29;;;;;;;23.52;13.00;;;;;;;1.98;86.09;100889.38;4849742;29;20037;-84
2022/01/12 08:38:55;;;;;;;20.90;13.30;;;;;;;1.99;85.83;100891.03;4844094;29;20057;-83
2022/01/12 08:41:21;;;;;;;16.45;11.38;;;;;;;2.00;85.86;100892.69;4827117;29;20041;-83
2022/01/12 08:43:47;;;;;;;17.83;11.13;;;;;;;2.00;85.99;100890.06;4841635;29;20038;-84
2022/01/12 08:46:12;;;;;;;16.67;11.95;;;;;;;2.00;85.82;100893.53;4854540;29;20041;-84
2022/01/12 08:48:38;;;;;;;22.35;11.43;;;;;;;1.91;85.96;100875.13;4834671;29;20037;-84
2022/01/12 08:51:03;;;;;;;17.48;10.60;;;;;;;2.06;85.95;100897.38;4858297;29;20094;-84
2022/01/12 08:53:29;;;;;;;16.20;10.82;;;;;;;2.08;85.94;100895.44;4824599;29;20076;-83
2022/01/12 08:55:55;;;;;;;15.43;10.25;;;;;;;2.09;85.71;100897.94;4872437;29;20030;-82
2022/01/12 08:58:20;;;;;;;16.15;10.65;;;;;;;2.09;86.31;100900.59;4860278;29;20066;-83
2022/01/12 09:00:46;;;;;;;22.15;12.25;;;;;;;2.12;86.32;100907.34;4845962;29;20093;-85
2022/01/12 09:03:13;;;;;;;20.90;11.75;;;;;;;2.14;86.56;100915.97;4871699;29;20103;-84
2022/01/12 09:05:39;;;;;;;19.25;11.38;;;;;;;2.15;85.93;100912.34;4858275;29;20037;-85
2022/01/12 09:08:05;;;;;;;16.67;12.02;;;;;;;2.11;86.10;100905.69;4859104;29;20101;-84
2022/01/12 09:10:31;;;;;;;19.63;12.15;;;;;;;2.18;86.17;100917.31;4824878;29;20037;-84
2022/01/12 09:12:56;;;;;;;17.60;12.00;;;;;;;2.18;85.93;100922.59;4827875;29;20132;-84
2022/01/12 09:15:25;;;;;;;18.75;12.13;;;;;;;2.19;86.10;100916.34;4832065;29;20033;-85
2022/01/12 09:17:51;;;;;;;17.00;10.75;;;;;;;2.16;86.13;100921.91;4840445;29;20461;-84
2022/01/12 09:20:17;;;;;;;17.95;12.80;;;;;;;2.19;86.15;100922.44;4849514;29;20022;-84
2022/01/12 09:22:42;;;;;;;20.02;12.40;;;;;;;2.08;86.20;100903.34;4843629;29;20410;-84
2022/01/12 09:25:09;;;;;;;22.15;12.80;;;;;;;2.19;85.82;100918.97;4844131;29;20041;-85
2022/01/12 09:27:35;;;;;;;19.58;13.30;;;;;;;2.24;86.24;100925.47;4857391;29;20041;-84
2022/01/12 09:30:01;;;;;;;22.25;14.00;;;;;;;2.18;86.33;100918.13;4859396;29;20388;-85
2022/01/12 09:32:26;;;;;;;20.65;12.98;;;;;;;2.27;86.70;100924.38;4820416;29;20030;-86
2022/01/12 09:34:51;;;;;;;22.90;13.82;;;;;;;2.28;86.09;100926.00;4843537;29;20495;-85
2022/01/12 09:37:17;;;;;;;23.42;13.98;;;;;;;2.29;85.91;100927.69;4829197;29;20029;-83
2022/01/12 09:39:45;;;;;;;24.80;13.07;;;;;;;2.30;86.05;100926.69;4825568;29;20022;-85
2022/01/12 09:42:11;;;;;;;25.83;12.18;;;;;;;2.32;85.99;100926.53;4848073;29;20468;-85
2022/01/12 09:44:38;;;;;;;18.60;12.40;;;;;;;2.34;86.08;100930.69;4829185;29;20120;-85
2022/01/12 09:47:06;;;;;;;21.77;12.73;;;;;;;2.20;85.79;100910.94;4857092;29;20510;-83
2022/01/12 09:49:32;;;;;;;18.40;12.20;;;;;;;2.38;85.96;100933.91;4840169;29;20044;-86
2022/01/12 09:51:58;;;;;;;19.15;12.00;;;;;;;2.41;86.29;100937.06;4845998;29;20030;-83
2022/01/12 09:54:25;;;;;;;17.15;12.00;;;;;;;2.41;85.88;100928.31;4826224;29;20126;-83
2022/01/12 09:56:51;;;;;;;21.92;13.50;;;;;;;2.42;86.02;100930.81;4844285;29;20041;-83
2022/01/12 09:59:17;;;;;;;23.40;13.18;;;;;;;2.46;85.72;100931.34;4841539;29;20026;-83
2022/01/12 10:01:44;;;;;;;17.52;12.13;;;;;;;2.47;85.55;100936.47;4828776;29;20085;-84
2022/01/12 10:04:18;;;;;;;19.00;11.60;;;;;;;2.42;85.74;100922.91;4851311;29;20630;-84
2022/01/12 10:06:50;;;;;;;23.77;13.48;;;;;;;2.51;85.85;100929.94;4843210;29;20033;-84
2022/01/12 10:09:17;;;;;;;17.30;11.90;;;;;;;2.54;85.84;100945.47;4854471;29;20045;-84
2022/01/12 10:11:54;;;;;;;16.25;11.23;;;;;;;2.54;85.80;100950.72;4841474;29;20033;-84
2022/01/12 10:14:21;;;;;;;22.35;12.10;;;;;;;2.58;85.70;100946.03;4849518;29;20034;-83
2022/01/12 10:16:51;;;;;;;21.23;12.38;;;;;;;2.60;86.04;100947.50;4846922;29;20102;-83
2022/01/12 10:19:28;;;;;;;18.17;11.68;;;;;;;2.60;85.67;100944.88;4845856;29;20060;-83
2022/01/12 10:21:54;;;;;;;18.65;12.80;;;;;;;2.63;85.94;100936.69;4856304;29;20069;-83
2022/01/12 10:24:20;;;;;;;18.63;11.93;;;;;;;2.40;85.82;100900.31;4845064;29;20056;-84
2022/01/12 10:26:47;;;;;;;19.73;11.65;;;;;;;2.68;86.19;100946.78;4844228;29;20822;-84
2022/01/12 10:29:18;;;;;;;19.58;13.27;;;;;;;2.70;85.93;100939.56;4829649;29;20033;-86
2022/01/12 10:31:48;;;;;;;20.05;12.23;;;;;;;2.70;85.66;100923.75;4858934;29;20391;-82
2022/01/12 10:34:14;;;;;;;18.70;12.70;;;;;;;2.74;85.67;100930.38;4844304;29;20038;-82
2022/01/12 10:36:42;;;;;;;18.65;12.93;;;;;;;2.75;85.80;100932.06;4846865;29;20029;-82
2022/01/12 10:39:09;;;;;;;21.23;13.43;;;;;;;2.79;85.57;100936.06;4859729;29;20436;-83
2022/01/12 10:41:35;;;;;;;17.77;12.05;;;;;;;2.80;85.59;100940.31;4846167;29;20394;-82
2022/01/12 10:44:02;;;;;;;19.05;12.73;;;;;;;2.82;85.50;100941.84;4842514;29;20045;-82
2022/01/12 10:46:29;;;;;;;18.23;11.57;;;;;;;2.82;85.41;100944.47;4844191;29;20443;-83
2022/01/12 10:48:57;;;;;;;21.90;12.57;;;;;;;2.84;85.86;100939.88;4860865;29;20037;-82
2022/01/12 10:51:24;;;;;;;17.13;11.45;;;;;;;2.87;85.35;100939.59;4843810;29;20038;-83
2022/01/12 10:53:52;;;;;;;23.58;12.32;;;;;;;2.89;85.74;100937.66;4833922;29;20414;-83
2022/01/12 10:56:20;;;;;;;19.70;13.98;;;;;;;2.88;85.35;100941.25;4876104;29;20491;-83
2022/01/12 10:58:48;;;;;;;23.42;13.43;;;;;;;2.89;85.36;100935.00;4840950;29;20065;-82
2022/01/12 11:01:17;;;;;;;18.80;11.52;;;;;;;2.89;85.65;100934.19;4871260;29;20025;-81
2022/01/12 11:03:44;;;;;;;17.48;11.95;;;;;;;2.88;85.25;100928.06;4836493;29;20384;-82
2022/01/12 11:06:10;;;;;;;20.40;11.82;;;;;;;2.89;85.22;100915.72;4851972;29;20028;-80
2022/01/12 11:08:37;;;;;;;16.38;11.00;;;;;;;2.89;84.72;100921.00;4843880;29;20644;-82
2022/01/12 11:11:03;;;;;;;23.63;11.18;;;;;;;2.90;84.64;100922.66;4871354;29;20053;-81
2022/01/12 11:13:30;;;;;;;24.15;12.48;;;;;;;2.85;84.81;100909.91;4841891;29;20503;-81
2022/01/12 11:16:02;;;;;;;17.70;11.25;;;;;;;2.92;85.07;100918.91;4839927;29;20202;-82
2022/01/12 11:18:30;;;;;;;19.65;11.52;;;;;;;2.94;84.95;100911.66;4877333;29;20036;-80
2022/01/12 11:21:03;;;;;;;24.13;11.80;;;;;;;2.92;85.09;100918.91;4841907;29;20034;-80
2022/01/12 11:23:41;;;;;;;21.30;11.55;;;;;;;2.93;84.27;100920.53;4862653;29;20029;-82
2022/01/12 11:26:19;;;;;;;18.42;11.50;;;;;;;2.94;84.30;100911.66;4844912;29;20037;-82
2022/01/12 11:28:46;;;;;;;17.10;9.98;;;;;;;2.89;84.66;100894.63;4853554;29;20049;-83
2022/01/12 11:31:15;;;;;;;24.25;11.65;;;;;;;2.96;84.20;100901.78;4840807;29;20026;-80
2022/01/12 11:33:43;;;;;;;17.65;11.20;;;;;;;2.98;84.54;100905.13;4854176;29;20091;-83
2022/01/12 11:36:16;;;;;;;20.45;11.85;;;;;;;3.00;84.17;100891.78;4849969;29;20039;-81
2022/01/12 11:38:47;;;;;;;16.13;10.38;;;;;;;3.03;83.98;100902.88;4858543;29;20037;-81
2022/01/12 11:41:17;;;;;;;22.50;10.52;;;;;;;3.01;84.26;100907.44;4843221;29;20062;-81
2022/01/12 11:43:43;;;;;;;19.55;11.00;;;;;;;3.04;83.93;100908.94;4860061;29;20041;-82
2022/01/12 11:46:13;;;;;;;20.52;10.05;;;;;;;3.05;83.92;100902.72;4844700;29;20425;-81
2022/01/12 11:48:48;;;;;;;15.18;10.27;;;;;;;3.09;83.68;100908.50;4854343;29;20391;-83
2022/01/12 11:51:16;;;;;;;18.45;11.90;;;;;;;3.12;83.22;100924.03;4837130;29;20475;-81
2022/01/12 11:53:52;;;;;;;21.33;10.27;;;;;;;3.13;83.88;100920.41;4831619;29;20037;-81
2022/01/12 11:56:25;;;;;;;;;;;;;;;3.10;83.53;100920.72;4860804;29;20487;-81
2022/01/12 11:59:06;;;;;;;19.55;11.02;;;;;;;3.09;83.34;100925.16;4858410;29;19916;-82
2022/01/12 12:02:02;;;;;;;18.75;11.48;;;;;;;3.09;83.40;100940.16;4857259;29;20029;-82
2022/01/12 12:04:30;;;;;;;21.02;11.60;;;;;;;3.10;83.27;100932.13;4834828;29;20503;-82
2022/01/12 12:07:09;;;;;;;20.38;12.20;;;;;;;3.10;83.01;100926.00;4873014;29;20021;-82
2022/01/12 12:09:40;;;;;;;20.40;12.77;;;;;;;3.13;82.45;100925.69;4858818;29;20034;-82
2022/01/12 12:12:18;;;;;;;20.73;13.13;;;;;;;3.11;82.64;100922.38;4839510;29;20056;-82
2022/01/12 12:14:46;;;;;;;22.15;13.60;;;;;;;3.17;82.54;100927.88;4857663;29;20160;-82
2022/01/12 12:17:12;;;;;;;27.88;14.23;;;;;;;3.17;82.44;100935.78;4859104;29;20399;-81
2022/01/12 12:19:37;;;;;;;22.15;14.27;;;;;;;3.20;82.56;100937.31;4852211;29;20030;-81
2022/01/12 12:22:09;;;;;;;22.20;13.05;;;;;;;3.20;82.22;100940.78;4840598;29;20115;-81
2022/01/12 12:24:34;;;;;;;23.15;13.35;;;;;;;3.21;82.64;100938.97;4840511;29;20033;-81
2022/01/12 12:27:01;;;;;;;23.70;12.68;;;;;;;3.22;82.54;100943.25;4855298;29;20070;-83
2022/01/12 12:29:28;;;;;;;23.08;12.35;;;;;;;3.24;82.10;100943.94;4857221;29;20030;-82
2022/01/12 12:31:57;;;;;;;21.38;12.60;;;;;;;3.25;82.36;100945.59;4859930;29;20120;-82
2022/01/12 12:34:24;;;;;;;20.48;12.23;;;;;;;3.23;81.70;100953.69;4854664;29;20493;-82